createdAt,value
2022-08-18T00:02:28.158Z,6.70
2022-08-18T00:04:57.976Z,5.77
2022-08-18T00:07:30.936Z,5.30
2022-08-18T00:09:59.593Z,5.60
2022-08-18T00:12:46.716Z,6.53
2022-08-18T00:15:17.050Z,5.83
2022-08-18T00:17:45.190Z,5.40
2022-08-18T00:20:20.850Z,6.27
2022-08-18T00:22:49.784Z,6.10
2022-08-18T00:25:19.948Z,6.47
2022-08-18T00:27:46.889Z,6.60
2022-08-18T00:30:20.797Z,6.37
2022-08-18T00:32:57.991Z,6.07
2022-08-18T00:35:32.814Z,6.23
2022-08-18T00:38:03.090Z,6.07
2022-08-18T00:40:45.800Z,5.87
2022-08-18T00:43:32.769Z,6.10
2022-08-18T00:46:02.345Z,5.40
2022-08-18T00:48:30.730Z,6.27
2022-08-18T00:51:04.539Z,6.37
2022-08-18T00:53:52.370Z,6.73
2022-08-18T00:56:27.104Z,6.10
2022-08-18T00:59:01.775Z,6.03
2022-08-18T01:01:33.206Z,7.37
2022-08-18T01:04:16.949Z,6.30
2022-08-18T01:06:55.494Z,6.20
2022-08-18T01:09:22.789Z,6.80
2022-08-18T01:11:51.808Z,6.70
2022-08-18T01:14:19.869Z,6.43
2022-08-18T01:17:07.793Z,6.53
2022-08-18T01:20:15.390Z,6.63
2022-08-18T01:22:48.789Z,6.97
2022-08-18T01:25:38.754Z,7.70
2022-08-18T01:28:06.462Z,6.30
2022-08-18T01:30:52.223Z,6.70
2022-08-18T01:33:20.016Z,6.17
2022-08-18T01:35:49.760Z,6.63
2022-08-18T01:38:20.397Z,7.20
2022-08-18T01:41:22.677Z,8.50
2022-08-18T01:43:37.082Z,7.00
2022-08-18T01:46:05.649Z,6.70
2022-08-18T01:48:37.702Z,7.50
2022-08-18T01:51:08.344Z,7.20
2022-08-18T01:53:38.140Z,6.93
2022-08-18T01:56:07.569Z,7.17
2022-08-18T01:58:36.840Z,7.50
2022-08-18T02:01:05.154Z,7.23
2022-08-18T02:03:40.058Z,7.27
2022-08-18T02:06:10.653Z,7.50
2022-08-18T02:08:42.808Z,7.40
2022-08-18T02:11:13.744Z,6.70
2022-08-18T02:13:41.489Z,7.50
2022-08-18T02:16:08.874Z,8.27
2022-08-18T02:18:47.810Z,7.30
2022-08-18T02:21:20.629Z,7.30
2022-08-18T02:23:51.125Z,7.87
2022-08-18T02:26:22.331Z,7.60
2022-08-18T02:28:49.915Z,7.53
2022-08-18T02:31:24.569Z,7.70
2022-08-18T02:33:52.868Z,8.73
2022-08-18T02:36:21.710Z,7.73
2022-08-18T02:38:56.836Z,7.67
2022-08-18T02:41:29.326Z,8.20
2022-08-18T02:43:58.792Z,8.00
2022-08-18T02:46:30.183Z,7.73
2022-08-18T02:49:00.153Z,9.20
2022-08-18T02:51:27.710Z,8.60
2022-08-18T02:53:55.334Z,7.73
2022-08-18T02:56:32.716Z,8.00
2022-08-18T02:59:15.959Z,7.57
2022-08-18T03:01:46.237Z,8.10
2022-08-18T03:04:17.778Z,7.60
2022-08-18T03:06:46.034Z,7.63
2022-08-18T03:09:16.737Z,8.00
2022-08-18T03:11:44.790Z,8.10
2022-08-18T03:14:14.039Z,9.00
2022-08-18T03:16:53.397Z,7.43
2022-08-18T03:19:24.510Z,7.87
2022-08-18T03:21:53.042Z,8.10
2022-08-18T03:24:22.778Z,8.20
2022-08-18T03:26:53.757Z,7.87
2022-08-18T03:29:24.038Z,8.30
2022-08-18T03:31:52.550Z,7.47
2022-08-18T03:34:21.299Z,8.20
2022-08-18T03:36:51.446Z,7.53
2022-08-18T03:39:20.285Z,8.13
2022-08-18T03:41:58.085Z,8.00
2022-08-18T03:44:30.638Z,7.17
2022-08-18T03:46:58.845Z,8.20
2022-08-18T03:49:27.020Z,7.80
2022-08-18T03:51:55.012Z,8.60
2022-08-18T03:54:23.099Z,7.40
2022-08-18T03:56:50.192Z,8.07
2022-08-18T03:59:22.750Z,8.30
2022-08-18T04:01:54.210Z,7.90
2022-08-18T04:04:28.011Z,8.40
2022-08-18T04:07:08.041Z,8.87
2022-08-18T04:09:38.955Z,8.10
2022-08-18T04:12:15.202Z,8.70
2022-08-18T04:14:48.200Z,7.77
2022-08-18T04:17:24.065Z,7.80
2022-08-18T04:19:54.298Z,7.80
2022-08-18T04:22:22.838Z,7.97
2022-08-18T04:24:50.403Z,8.37
2022-08-18T04:27:20.044Z,7.80
2022-08-18T04:29:48.642Z,8.93
2022-08-18T04:32:15.710Z,8.13
2022-08-18T04:34:42.613Z,7.63
2022-08-18T04:37:11.137Z,7.63
2022-08-18T04:39:38.714Z,7.90
2022-08-18T04:42:06.150Z,8.50
2022-08-18T04:44:35.574Z,9.07
2022-08-18T04:47:02.675Z,8.47
2022-08-18T04:49:31.813Z,7.10
2022-08-18T04:52:34.204Z,8.50
2022-08-18T04:55:06.233Z,7.77
2022-08-18T04:57:34.978Z,7.80
2022-08-18T05:00:05.271Z,7.73
2022-08-18T05:02:33.293Z,9.00
2022-08-18T05:05:03.555Z,8.57
2022-08-18T05:07:31.633Z,8.10
2022-08-18T05:09:58.670Z,7.87
2022-08-18T05:12:26.497Z,8.57
2022-08-18T05:14:57.511Z,8.07
2022-08-18T05:17:30.450Z,8.23
2022-08-18T05:20:00.849Z,7.63
2022-08-18T05:22:31.514Z,8.80
2022-08-18T05:25:00.605Z,7.77
2022-08-18T05:27:33.805Z,7.90
2022-08-18T05:30:01.306Z,8.60
2022-08-18T05:32:47.449Z,8.00
2022-08-18T05:35:31.298Z,8.00
2022-08-18T05:38:08.932Z,7.77
2022-08-18T05:40:37.183Z,8.20
2022-08-18T05:43:06.613Z,8.30
2022-08-18T05:45:35.093Z,8.07
2022-08-18T05:48:02.373Z,8.27
2022-08-18T05:50:33.144Z,7.77
2022-08-18T05:53:05.505Z,7.77
2022-08-18T05:56:19.087Z,6.50
2022-08-18T05:58:51.522Z,7.83
2022-08-18T06:01:41.728Z,7.80
2022-08-18T06:04:27.200Z,8.50
2022-08-18T06:06:58.266Z,7.57
2022-08-18T06:09:57.846Z,8.20
2022-08-18T06:12:28.522Z,6.90
2022-08-18T06:15:06.605Z,8.50
2022-08-18T06:18:07.259Z,8.17
2022-08-18T06:21:01.492Z,7.80
2022-08-18T06:23:53.268Z,7.70
2022-08-18T06:26:36.895Z,7.50
2022-08-18T06:29:42.441Z,7.20
2022-08-18T06:32:28.385Z,7.17
2022-08-18T06:35:04.030Z,6.83
2022-08-18T06:37:58.035Z,6.87
2022-08-18T06:40:25.027Z,7.17
2022-08-18T06:42:52.073Z,6.90
2022-08-18T06:45:36.641Z,7.50
2022-08-18T06:48:15.093Z,8.17
2022-08-18T06:51:12.576Z,7.47
2022-08-18T06:54:28.290Z,7.33
2022-08-18T06:56:58.470Z,7.00
2022-08-18T06:59:36.730Z,7.10
2022-08-18T07:02:38.765Z,6.60
2022-08-18T07:05:14.890Z,7.13
2022-08-18T07:07:43.570Z,7.40
2022-08-18T07:10:16.313Z,8.03
2022-08-18T07:12:44.691Z,6.80
2022-08-18T07:15:13.614Z,6.90
2022-08-18T07:17:42.898Z,7.53
2022-08-18T07:20:25.368Z,7.80
2022-08-18T07:22:55.299Z,6.67
2022-08-18T07:25:45.591Z,7.60
2022-08-18T07:28:29.762Z,6.13
2022-08-18T07:31:28.775Z,6.17
2022-08-18T07:34:20.755Z,6.20
2022-08-18T07:37:31.738Z,6.53
2022-08-18T07:40:32.088Z,6.60
2022-08-18T07:43:02.560Z,6.80
2022-08-18T07:45:44.976Z,6.47
2022-08-18T07:48:38.769Z,7.57
2022-08-18T07:51:37.039Z,7.00
2022-08-18T07:55:25.024Z,7.20
2022-08-18T07:58:14.397Z,6.07
2022-08-18T08:01:00.288Z,7.10
2022-08-18T08:03:58.402Z,6.60
2022-08-18T08:06:30.658Z,6.70
2022-08-18T08:09:18.995Z,5.93
2022-08-18T08:15:49.803Z,7.37
2022-08-18T08:19:11.233Z,6.40
2022-08-18T08:22:01.998Z,10.00
2022-08-18T08:28:03.490Z,6.40
2022-08-18T08:30:36.794Z,6.70
2022-08-18T08:33:41.549Z,6.67
2022-08-18T08:36:22.325Z,7.47
2022-08-18T08:39:05.376Z,7.27
2022-08-18T08:41:39.951Z,7.37
2022-08-18T08:44:08.565Z,7.25
2022-08-18T08:46:59.347Z,7.03
2022-08-18T08:49:35.961Z,6.50
2022-08-18T08:52:41.996Z,6.43
2022-08-18T08:55:25.757Z,6.30
2022-08-18T08:58:31.911Z,6.53
2022-08-18T09:00:59.251Z,7.60
2022-08-18T09:03:46.691Z,7.90
2022-08-18T09:06:33.083Z,6.97
2022-08-18T09:09:03.045Z,6.33
2022-08-18T09:11:44.232Z,7.53
2022-08-18T09:14:37.504Z,6.57
2022-08-18T09:17:39.304Z,7.13
2022-08-18T09:20:36.105Z,7.80
2022-08-18T09:23:23.891Z,6.63
2022-08-18T09:26:00.686Z,6.80
2022-08-18T09:28:30.110Z,6.70
2022-08-18T09:31:03.178Z,6.53
2022-08-18T09:33:40.637Z,6.83
2022-08-18T09:36:20.156Z,6.80
2022-08-18T09:39:20.569Z,7.10
2022-08-18T09:42:12.936Z,6.53
2022-08-18T09:44:48.850Z,6.53
2022-08-18T09:47:22.342Z,6.27
2022-08-18T09:49:54.731Z,6.80
2022-08-18T09:52:23.980Z,6.60
2022-08-18T09:55:01.087Z,6.23
2022-08-18T09:57:42.108Z,7.57
2022-08-18T10:00:14.885Z,6.73
2022-08-18T10:02:47.583Z,6.43
2022-08-18T10:05:15.972Z,6.10
2022-08-18T10:07:56.618Z,6.90
2022-08-18T10:14:43.892Z,6.13
2022-08-18T10:18:04.671Z,6.47
2022-08-18T10:21:21.065Z,6.30
2022-08-18T10:24:35.024Z,6.80
2022-08-18T10:27:35.565Z,5.80
2022-08-18T10:30:25.865Z,6.20
2022-08-18T10:32:59.043Z,6.00
2022-08-18T10:35:59.175Z,6.13
2022-08-18T10:38:49.645Z,6.40
2022-08-18T10:41:31.019Z,5.53
2022-08-18T10:44:01.311Z,5.63
2022-08-18T10:46:39.610Z,5.40
2022-08-18T10:49:13.509Z,4.63
2022-08-18T10:52:38.970Z,5.10
2022-08-18T10:55:50.148Z,5.10
2022-08-18T10:58:38.744Z,5.53
2022-08-18T11:01:30.999Z,5.30
2022-08-18T11:04:34.656Z,5.23
2022-08-18T11:07:18.292Z,5.63
2022-08-18T11:10:04.769Z,4.77
2022-08-18T11:13:24.564Z,4.97
2022-08-18T11:16:15.958Z,5.07
2022-08-18T11:18:53.010Z,4.50
2022-08-18T11:21:25.509Z,4.60
2022-08-18T11:24:26.206Z,4.80
2022-08-18T11:29:53.314Z,4.77
2022-08-18T11:32:32.951Z,5.10
2022-08-18T11:35:13.486Z,5.30
2022-08-18T11:37:51.526Z,5.40
2022-08-18T11:43:21.668Z,5.03
2022-08-18T11:45:59.626Z,5.40
2022-08-18T11:48:37.760Z,4.83
2022-08-18T11:51:17.810Z,4.53
2022-08-18T11:54:19.734Z,5.13
2022-08-18T11:56:46.941Z,5.20
2022-08-18T12:02:18.848Z,5.20
2022-08-18T12:04:53.374Z,5.97
2022-08-18T12:07:35.638Z,5.20
2022-08-18T12:10:29.434Z,5.40
2022-08-18T12:13:00.530Z,5.27
2022-08-18T12:18:28.744Z,5.17
2022-08-18T12:21:09.249Z,5.30
2022-08-18T12:23:49.640Z,5.30
2022-08-18T12:26:38.503Z,5.10
2022-08-18T12:29:08.825Z,5.30
2022-08-18T12:31:47.893Z,5.07
2022-08-18T12:34:25.105Z,4.77
2022-08-18T12:36:58.532Z,5.70
2022-08-18T12:39:25.805Z,4.90
2022-08-18T12:41:53.022Z,5.50
2022-08-18T12:44:20.852Z,5.70
2022-08-18T12:46:49.519Z,5.80
2022-08-18T12:49:25.123Z,5.33
2022-08-18T12:51:55.903Z,5.40
2022-08-18T12:54:23.406Z,6.10
2022-08-18T12:56:56.329Z,5.67
2022-08-18T12:59:25.311Z,5.90
2022-08-18T13:01:58.679Z,5.30
2022-08-18T13:04:27.262Z,5.47
2022-08-18T13:06:59.932Z,5.43
2022-08-18T13:09:34.740Z,5.00
2022-08-18T13:12:14.916Z,5.60
2022-08-18T13:14:44.657Z,5.43
2022-08-18T13:17:30.257Z,5.87
2022-08-18T13:20:05.390Z,6.07
2022-08-18T13:22:33.463Z,6.10
2022-08-18T13:25:07.314Z,5.90
2022-08-18T13:27:37.434Z,6.13
2022-08-18T13:30:30.410Z,5.90
2022-08-18T13:33:05.986Z,6.40
2022-08-18T13:35:52.341Z,5.33
2022-08-18T13:38:26.040Z,5.90
2022-08-18T13:40:59.175Z,6.97
2022-08-18T13:43:44.883Z,5.43
2022-08-18T13:46:19.779Z,5.50
2022-08-18T13:49:03.480Z,5.47
2022-08-18T13:51:31.585Z,5.47
2022-08-18T13:54:29.030Z,6.00
2022-08-18T13:56:51.663Z,5.40
2022-08-18T13:59:22.539Z,5.30
2022-08-18T14:01:53.089Z,6.20
2022-08-18T14:04:22.815Z,6.53
2022-08-18T14:06:57.371Z,6.30
2022-08-18T14:09:36.527Z,5.57
2022-08-18T14:12:23.932Z,5.47
2022-08-18T14:14:57.040Z,5.60
2022-08-18T14:17:27.001Z,5.50
2022-08-18T14:20:15.254Z,6.27
2022-08-18T14:23:11.847Z,6.10
2022-08-18T14:25:59.698Z,6.83
2022-08-18T14:28:28.772Z,7.43
2022-08-18T14:30:57.962Z,6.60
2022-08-18T14:33:34.018Z,6.50
2022-08-18T14:36:18.022Z,6.63
2022-08-18T14:38:45.500Z,7.53
2022-08-18T14:41:14.388Z,6.70
2022-08-18T14:44:10.385Z,6.10
2022-08-18T14:46:32.585Z,7.30
2022-08-18T14:49:04.148Z,7.00
2022-08-18T14:51:33.486Z,7.40
2022-08-18T14:54:02.156Z,7.40
2022-08-18T14:56:33.542Z,6.77
2022-08-18T14:59:07.769Z,6.80
2022-08-18T15:01:42.493Z,6.83
2022-08-18T15:04:19.391Z,7.10
2022-08-18T15:06:56.181Z,7.53
2022-08-18T15:09:26.659Z,6.80
2022-08-18T15:11:56.467Z,8.13
2022-08-18T15:14:33.147Z,6.70
2022-08-18T15:17:11.829Z,6.00
2022-08-18T15:20:00.165Z,5.90
2022-08-18T15:22:47.825Z,5.70
2022-08-18T15:25:34.487Z,6.60
2022-08-18T15:28:01.689Z,5.60
2022-08-18T15:30:28.782Z,5.40
2022-08-18T15:32:55.967Z,4.43
2022-08-18T15:35:22.933Z,4.77
2022-08-18T15:37:51.283Z,4.77
2022-08-18T15:40:30.777Z,3.50
2022-08-18T15:43:09.847Z,3.90
2022-08-18T15:45:43.057Z,3.60
2022-08-18T15:48:21.963Z,4.40
2022-08-18T15:50:51.444Z,3.43
2022-08-18T15:53:30.067Z,3.70
2022-08-18T15:55:57.887Z,2.50
2022-08-18T15:58:26.675Z,2.50
2022-08-18T16:00:54.645Z,2.50
2022-08-18T16:03:21.827Z,2.90
2022-08-18T16:05:55.754Z,2.67
2022-08-18T16:08:25.498Z,2.97
2022-08-18T16:10:54.292Z,2.53
2022-08-18T16:13:22.863Z,2.70
2022-08-18T16:15:50.522Z,2.90
2022-08-18T16:18:21.216Z,1.93
2022-08-18T16:20:48.832Z,1.67
2022-08-18T16:23:19.986Z,2.07
2022-08-18T16:25:46.962Z,1.67
2022-08-18T16:28:13.867Z,1.80
2022-08-18T16:30:42.067Z,1.70
2022-08-18T16:33:09.380Z,1.87
2022-08-18T16:35:37.654Z,2.20
2022-08-18T16:38:09.030Z,1.97
2022-08-18T16:40:37.830Z,1.50
2022-08-18T16:43:06.938Z,2.27
2022-08-18T16:45:37.199Z,1.73
2022-08-18T16:48:07.524Z,1.50
2022-08-18T16:50:36.099Z,1.63
2022-08-18T16:53:03.521Z,1.60
2022-08-18T16:55:31.499Z,1.30
2022-08-18T16:58:17.040Z,2.17
2022-08-18T17:01:02.975Z,1.83
2022-08-18T17:03:48.253Z,1.90
2022-08-18T17:06:19.141Z,1.73
2022-08-18T17:08:46.787Z,2.10
2022-08-18T17:11:18.456Z,1.97
2022-08-18T17:13:47.988Z,2.10
2022-08-18T17:16:17.820Z,2.83
2022-08-18T17:18:45.600Z,3.10
2022-08-18T17:21:18.468Z,2.50
2022-08-18T17:23:48.120Z,2.43
2022-08-18T17:26:41.225Z,2.57
2022-08-18T17:29:44.314Z,2.30
2022-08-18T17:32:43.064Z,2.23
2022-08-18T17:35:28.694Z,2.47
2022-08-18T17:38:38.529Z,2.00
2022-08-18T17:41:06.314Z,2.17
2022-08-18T17:46:26.610Z,2.17
2022-08-18T17:49:13.391Z,2.27
2022-08-18T17:51:55.277Z,2.60
2022-08-18T17:57:30.976Z,1.80
2022-08-18T18:00:13.898Z,2.00
2022-08-18T18:02:45.291Z,2.10
2022-08-18T18:05:20.050Z,2.33
2022-08-18T18:07:50.538Z,2.50
2022-08-18T18:13:34.336Z,2.27
2022-08-18T18:16:35.400Z,2.57
2022-08-18T18:19:08.028Z,2.27
2022-08-18T18:21:57.557Z,2.67
2022-08-18T18:24:34.696Z,1.80
2022-08-18T18:27:02.869Z,2.17
2022-08-18T18:29:38.120Z,2.10
2022-08-18T18:32:40.725Z,3.10
2022-08-18T18:35:27.180Z,2.20
2022-08-18T18:38:02.428Z,2.43
2022-08-18T18:40:59.094Z,2.40
2022-08-18T18:43:39.127Z,1.70
2022-08-18T18:46:53.343Z,2.20
2022-08-18T18:49:53.442Z,1.73
2022-08-18T18:52:55.069Z,2.50
2022-08-18T18:55:28.538Z,1.80
2022-08-18T18:58:23.495Z,1.83
2022-08-18T19:00:59.976Z,2.70
2022-08-18T19:04:04.508Z,2.27
2022-08-18T19:06:51.953Z,2.03
2022-08-18T19:09:33.871Z,2.30
2022-08-18T19:12:08.357Z,2.00
2022-08-18T19:14:56.445Z,2.10
2022-08-18T19:17:43.401Z,2.50
2022-08-18T19:20:17.274Z,1.70
2022-08-18T19:23:04.696Z,1.83
2022-08-18T19:25:37.073Z,1.90
2022-08-18T19:29:12.381Z,2.00
2022-08-18T19:31:49.727Z,2.63
2022-08-18T19:34:33.169Z,1.90
2022-08-18T19:37:32.934Z,2.30
2022-08-18T19:40:09.579Z,1.73
2022-08-18T19:42:55.011Z,2.33
2022-08-18T19:45:45.007Z,1.87
2022-08-18T19:48:22.700Z,2.47
2022-08-18T19:51:30.297Z,2.03
2022-08-18T19:54:23.975Z,2.07
2022-08-18T19:57:34.923Z,2.10
2022-08-18T20:01:21.103Z,2.40
2022-08-18T20:04:13.646Z,2.10
2022-08-18T20:07:15.193Z,2.40
2022-08-18T20:10:19.578Z,2.00
2022-08-18T20:13:15.887Z,1.83
2022-08-18T20:16:44.285Z,2.10
2022-08-18T20:20:11.049Z,2.63
2022-08-18T20:22:43.733Z,2.53
2022-08-18T20:25:17.724Z,2.10
2022-08-18T20:27:51.967Z,2.50
2022-08-18T20:30:27.695Z,2.03
2022-08-18T20:33:25.966Z,2.50
2022-08-18T20:36:17.741Z,2.37
2022-08-18T20:38:50.546Z,2.77
2022-08-18T20:41:43.785Z,2.63
2022-08-18T20:44:50.823Z,2.23
2022-08-18T20:47:23.512Z,2.60
2022-08-18T20:50:20.963Z,3.00
2022-08-18T20:53:26.452Z,2.90
2022-08-18T20:56:42.987Z,2.93
2022-08-18T20:59:24.144Z,3.07
2022-08-18T21:02:08.210Z,2.33
2022-08-18T21:04:52.171Z,3.30
2022-08-18T21:07:36.511Z,2.83
2022-08-18T21:10:26.313Z,2.77
2022-08-18T21:13:06.113Z,2.57
2022-08-18T21:15:38.349Z,3.57
2022-08-18T21:18:27.280Z,3.00
2022-08-18T21:20:57.881Z,3.60
2022-08-18T21:23:40.686Z,2.93
2022-08-18T21:26:15.828Z,2.90
2022-08-18T21:28:50.289Z,2.87
2022-08-18T21:31:44.258Z,3.33
2022-08-18T21:34:33.427Z,3.27
2022-08-18T21:37:08.739Z,3.30
2022-08-18T21:39:54.953Z,2.60
2022-08-18T21:42:31.899Z,3.00
2022-08-18T21:45:00.790Z,2.77
2022-08-18T21:47:34.771Z,3.00
2022-08-18T21:50:15.025Z,3.13
2022-08-18T21:52:52.305Z,3.17
2022-08-18T21:55:32.059Z,2.90
2022-08-18T21:58:14.457Z,3.20
2022-08-18T22:00:48.312Z,3.30
2022-08-18T22:03:22.866Z,3.50
2022-08-18T22:06:03.663Z,4.03
2022-08-18T22:08:44.412Z,3.60
2022-08-18T22:12:00.754Z,3.50
2022-08-18T22:14:53.832Z,2.90
2022-08-18T22:17:43.386Z,3.43
2022-08-18T22:20:38.392Z,3.33
2022-08-18T22:23:32.853Z,3.63
2022-08-18T22:26:37.250Z,3.57
2022-08-18T22:29:27.479Z,3.57
2022-08-18T22:31:55.900Z,3.43
2022-08-18T22:34:29.257Z,3.60
2022-08-18T22:37:19.498Z,4.00
2022-08-18T22:40:06.093Z,3.70
2022-08-18T22:42:33.961Z,4.00
2022-08-18T22:45:03.401Z,3.97
2022-08-18T22:47:40.505Z,4.27
2022-08-18T22:50:13.650Z,3.40
2022-08-18T22:52:46.850Z,4.90
2022-08-18T22:55:24.002Z,4.13
2022-08-18T22:57:56.280Z,4.00
2022-08-18T23:00:25.785Z,4.30
2022-08-18T23:02:54.267Z,3.90
2022-08-18T23:05:21.887Z,3.90
2022-08-18T23:07:49.883Z,3.33
2022-08-18T23:10:17.064Z,3.87
2022-08-18T23:12:46.996Z,3.70
2022-08-18T23:15:17.161Z,3.90
2022-08-18T23:17:44.214Z,3.27
2022-08-18T23:20:19.300Z,3.90
2022-08-18T23:22:48.195Z,4.30
2022-08-18T23:25:15.965Z,4.07
2022-08-18T23:27:43.407Z,4.53
2022-08-18T23:30:11.526Z,3.87
2022-08-18T23:32:38.521Z,3.20
2022-08-18T23:35:06.225Z,3.50
2022-08-18T23:37:33.185Z,4.43
2022-08-18T23:40:00.329Z,4.20
2022-08-18T23:42:27.529Z,3.87
2022-08-18T23:45:03.965Z,4.40
2022-08-18T23:47:31.366Z,4.33
2022-08-18T23:49:58.786Z,4.07
2022-08-18T23:52:25.720Z,4.63
2022-08-18T23:54:52.690Z,4.47
2022-08-18T23:57:19.680Z,4.17
2022-08-18T23:59:46.655Z,4.37
